sensor_id;sensor_type;location;lat;lon;timestamp;P1;durP1;ratioP1;P2;durP2;ratioP2
25810;SDS011;13645;52.460;13.910;2022-10-24T00:01:10;17.20;;;8.00;;
25810;SDS011;13645;52.460;13.910;2022-10-24T00:03:38;15.30;;;8.35;;
25810;SDS011;13645;52.460;13.910;2022-10-24T00:06:06;13.70;;;8.23;;
25810;SDS011;13645;52.460;13.910;2022-10-24T00:08:34;18.17;;;8.63;;
25810;SDS011;13645;52.460;13.910;2022-10-24T00:11:06;14.90;;;8.13;;
25810;SDS011;13645;52.460;13.910;2022-10-24T00:13:34;13.75;;;8.15;;
25810;SDS011;13645;52.460;13.910;2022-10-24T00:16:01;20.02;;;8.68;;
25810;SDS011;13645;52.460;13.910;2022-10-24T00:18:28;14.45;;;7.97;;
25810;SDS011;13645;52.460;13.910;2022-10-24T00:20:54;14.90;;;8.48;;
25810;SDS011;13645;52.460;13.910;2022-10-24T00:23:21;13.88;;;8.10;;
25810;SDS011;13645;52.460;13.910;2022-10-24T00:25:48;12.75;;;7.53;;
25810;SDS011;13645;52.460;13.910;2022-10-24T00:28:14;18.25;;;8.43;;
25810;SDS011;13645;52.460;13.910;2022-10-24T00:30:42;14.40;;;7.80;;
25810;SDS011;13645;52.460;13.910;2022-10-24T00:33:09;13.32;;;8.43;;
25810;SDS011;13645;52.460;13.910;2022-10-24T00:35:35;14.48;;;8.40;;
25810;SDS011;13645;52.460;13.910;2022-10-24T00:38:02;14.82;;;7.85;;
25810;SDS011;13645;52.460;13.910;2022-10-24T00:40:29;10.05;;;7.25;;
25810;SDS011;13645;52.460;13.910;2022-10-24T00:42:55;15.93;;;8.00;;
25810;SDS011;13645;52.460;13.910;2022-10-24T00:48:15;14.00;;;8.50;;
25810;SDS011;13645;52.460;13.910;2022-10-24T00:50:48;15.35;;;8.43;;
25810;SDS011;13645;52.460;13.910;2022-10-24T00:53:18;17.23;;;8.27;;
25810;SDS011;13645;52.460;13.910;2022-10-24T00:55:47;16.13;;;9.25;;
25810;SDS011;13645;52.460;13.910;2022-10-24T00:58:17;13.93;;;9.13;;
25810;SDS011;13645;52.460;13.910;2022-10-24T01:00:46;16.02;;;8.63;;
25810;SDS011;13645;52.460;13.910;2022-10-24T01:03:13;14.38;;;9.43;;
25810;SDS011;13645;52.460;13.910;2022-10-24T01:05:46;15.75;;;9.07;;
25810;SDS011;13645;52.460;13.910;2022-10-24T01:11:22;17.25;;;9.57;;
25810;SDS011;13645;52.460;13.910;2022-10-24T01:17:24;15.13;;;9.98;;
25810;SDS011;13645;52.460;13.910;2022-10-24T01:20:21;13.85;;;9.23;;
25810;SDS011;13645;52.460;13.910;2022-10-24T01:23:02;13.25;;;9.10;;
25810;SDS011;13645;52.460;13.910;2022-10-24T01:31:27;18.30;;;9.00;;
25810;SDS011;13645;52.460;13.910;2022-10-24T01:34:02;19.98;;;9.32;;
25810;SDS011;13645;52.460;13.910;2022-10-24T01:36:38;16.27;;;8.70;;
25810;SDS011;13645;52.460;13.910;2022-10-24T01:39:14;13.73;;;8.48;;
25810;SDS011;13645;52.460;13.910;2022-10-24T01:41:45;14.60;;;8.80;;
25810;SDS011;13645;52.460;13.910;2022-10-24T01:44:32;17.13;;;8.02;;
25810;SDS011;13645;52.460;13.910;2022-10-24T01:47:09;14.65;;;8.27;;
25810;SDS011;13645;52.460;13.910;2022-10-24T01:49:39;15.05;;;8.27;;
25810;SDS011;13645;52.460;13.910;2022-10-24T01:52:11;13.63;;;8.30;;
25810;SDS011;13645;52.460;13.910;2022-10-24T01:54:42;15.23;;;7.90;;
25810;SDS011;13645;52.460;13.910;2022-10-24T01:57:09;19.63;;;8.00;;
25810;SDS011;13645;52.460;13.910;2022-10-24T01:59:39;18.65;;;7.43;;
25810;SDS011;13645;52.460;13.910;2022-10-24T02:02:10;12.35;;;7.40;;
25810;SDS011;13645;52.460;13.910;2022-10-24T02:04:57;13.90;;;7.97;;
25810;SDS011;13645;52.460;13.910;2022-10-24T02:07:32;13.63;;;7.35;;
25810;SDS011;13645;52.460;13.910;2022-10-24T02:10:05;15.05;;;7.95;;
25810;SDS011;13645;52.460;13.910;2022-10-24T02:12:35;15.73;;;6.88;;
25810;SDS011;13645;52.460;13.910;2022-10-24T02:15:11;14.07;;;7.40;;
25810;SDS011;13645;52.460;13.910;2022-10-24T02:17:41;13.45;;;7.80;;
25810;SDS011;13645;52.460;13.910;2022-10-24T02:20:09;11.10;;;6.95;;
25810;SDS011;13645;52.460;13.910;2022-10-24T02:25:25;11.60;;;7.05;;
25810;SDS011;13645;52.460;13.910;2022-10-24T02:28:01;10.50;;;6.87;;
25810;SDS011;13645;52.460;13.910;2022-10-24T02:30:55;10.88;;;6.88;;
25810;SDS011;13645;52.460;13.910;2022-10-24T02:33:26;10.20;;;6.65;;
25810;SDS011;13645;52.460;13.910;2022-10-24T02:35:55;15.30;;;10.27;;
25810;SDS011;13645;52.460;13.910;2022-10-24T02:38:25;22.83;;;9.35;;
25810;SDS011;13645;52.460;13.910;2022-10-24T02:40:58;15.57;;;9.20;;
25810;SDS011;13645;52.460;13.910;2022-10-24T02:43:27;18.38;;;9.43;;
25810;SDS011;13645;52.460;13.910;2022-10-24T02:45:57;13.68;;;9.07;;
25810;SDS011;13645;52.460;13.910;2022-10-24T02:48:29;14.95;;;8.98;;
25810;SDS011;13645;52.460;13.910;2022-10-24T02:51:03;15.18;;;8.35;;
25810;SDS011;13645;52.460;13.910;2022-10-24T02:53:31;13.73;;;7.45;;
25810;SDS011;13645;52.460;13.910;2022-10-24T02:56:01;13.60;;;7.05;;
25810;SDS011;13645;52.460;13.910;2022-10-24T02:58:28;10.38;;;6.50;;
25810;SDS011;13645;52.460;13.910;2022-10-24T03:00:55;9.82;;;5.97;;
25810;SDS011;13645;52.460;13.910;2022-10-24T03:03:22;13.02;;;6.28;;
25810;SDS011;13645;52.460;13.910;2022-10-24T03:05:48;12.45;;;6.85;;
25810;SDS011;13645;52.460;13.910;2022-10-24T03:08:15;10.48;;;6.43;;
25810;SDS011;13645;52.460;13.910;2022-10-24T03:10:41;13.75;;;7.55;;
25810;SDS011;13645;52.460;13.910;2022-10-24T03:13:08;10.88;;;6.35;;
25810;SDS011;13645;52.460;13.910;2022-10-24T03:15:35;11.88;;;7.30;;
25810;SDS011;13645;52.460;13.910;2022-10-24T03:18:01;11.95;;;6.68;;
25810;SDS011;13645;52.460;13.910;2022-10-24T03:20:28;12.32;;;7.03;;
25810;SDS011;13645;52.460;13.910;2022-10-24T03:22:55;7.57;;;5.85;;
25810;SDS011;13645;52.460;13.910;2022-10-24T03:25:21;11.65;;;7.35;;
25810;SDS011;13645;52.460;13.910;2022-10-24T03:27:48;13.30;;;6.72;;
25810;SDS011;13645;52.460;13.910;2022-10-24T03:30:15;10.95;;;6.78;;
25810;SDS011;13645;52.460;13.910;2022-10-24T03:32:42;12.90;;;6.90;;
25810;SDS011;13645;52.460;13.910;2022-10-24T03:35:09;13.90;;;6.47;;
25810;SDS011;13645;52.460;13.910;2022-10-24T03:37:39;9.85;;;6.30;;
25810;SDS011;13645;52.460;13.910;2022-10-24T03:40:06;10.18;;;6.05;;
25810;SDS011;13645;52.460;13.910;2022-10-24T03:42:34;9.95;;;5.60;;
25810;SDS011;13645;52.460;13.910;2022-10-24T03:45:00;9.63;;;6.25;;
25810;SDS011;13645;52.460;13.910;2022-10-24T03:47:27;12.27;;;6.05;;
25810;SDS011;13645;52.460;13.910;2022-10-24T03:49:54;8.00;;;5.88;;
25810;SDS011;13645;52.460;13.910;2022-10-24T03:52:20;9.52;;;5.10;;
25810;SDS011;13645;52.460;13.910;2022-10-24T03:54:47;8.00;;;5.55;;
25810;SDS011;13645;52.460;13.910;2022-10-24T03:57:14;10.95;;;5.22;;
25810;SDS011;13645;52.460;13.910;2022-10-24T03:59:41;11.80;;;5.32;;
25810;SDS011;13645;52.460;13.910;2022-10-24T04:02:07;10.57;;;5.15;;
25810;SDS011;13645;52.460;13.910;2022-10-24T04:04:34;8.75;;;5.18;;
25810;SDS011;13645;52.460;13.910;2022-10-24T04:07:01;13.27;;;5.95;;
25810;SDS011;13645;52.460;13.910;2022-10-24T04:09:27;9.57;;;5.28;;
25810;SDS011;13645;52.460;13.910;2022-10-24T04:11:54;9.35;;;5.28;;
25810;SDS011;13645;52.460;13.910;2022-10-24T04:14:21;13.60;;;6.13;;
25810;SDS011;13645;52.460;13.910;2022-10-24T04:16:48;9.88;;;5.63;;
25810;SDS011;13645;52.460;13.910;2022-10-24T04:19:15;14.48;;;6.38;;
25810;SDS011;13645;52.460;13.910;2022-10-24T04:21:45;10.45;;;5.70;;
25810;SDS011;13645;52.460;13.910;2022-10-24T04:24:13;11.70;;;5.50;;
25810;SDS011;13645;52.460;13.910;2022-10-24T04:26:40;8.73;;;5.82;;
25810;SDS011;13645;52.460;13.910;2022-10-24T04:29:07;11.32;;;5.72;;
25810;SDS011;13645;52.460;13.910;2022-10-24T04:31:34;10.98;;;6.03;;
25810;SDS011;13645;52.460;13.910;2022-10-24T04:34:01;9.82;;;5.88;;
25810;SDS011;13645;52.460;13.910;2022-10-24T04:36:27;9.65;;;6.13;;
25810;SDS011;13645;52.460;13.910;2022-10-24T04:38:54;12.07;;;6.10;;
25810;SDS011;13645;52.460;13.910;2022-10-24T04:41:21;13.80;;;6.30;;
25810;SDS011;13645;52.460;13.910;2022-10-24T04:43:48;9.07;;;6.18;;
25810;SDS011;13645;52.460;13.910;2022-10-24T04:46:14;11.70;;;5.78;;
25810;SDS011;13645;52.460;13.910;2022-10-24T04:48:41;9.88;;;5.60;;
25810;SDS011;13645;52.460;13.910;2022-10-24T04:51:07;10.38;;;5.95;;
25810;SDS011;13645;52.460;13.910;2022-10-24T04:53:34;6.70;;;5.97;;
25810;SDS011;13645;52.460;13.910;2022-10-24T04:56:02;8.27;;;5.72;;
25810;SDS011;13645;52.460;13.910;2022-10-24T04:58:29;10.50;;;5.63;;
25810;SDS011;13645;52.460;13.910;2022-10-24T05:00:55;11.55;;;5.60;;
25810;SDS011;13645;52.460;13.910;2022-10-24T05:03:22;9.00;;;5.72;;
25810;SDS011;13645;52.460;13.910;2022-10-24T05:05:49;11.20;;;6.13;;
25810;SDS011;13645;52.460;13.910;2022-10-24T05:08:16;12.32;;;5.28;;
25810;SDS011;13645;52.460;13.910;2022-10-24T05:10:43;12.32;;;5.95;;
25810;SDS011;13645;52.460;13.910;2022-10-24T05:13:09;8.98;;;5.43;;
25810;SDS011;13645;52.460;13.910;2022-10-24T05:15:36;15.05;;;5.82;;
25810;SDS011;13645;52.460;13.910;2022-10-24T05:18:03;13.00;;;5.57;;
25810;SDS011;13645;52.460;13.910;2022-10-24T05:20:30;20.02;;;5.90;;
25810;SDS011;13645;52.460;13.910;2022-10-24T05:22:57;12.10;;;5.82;;
25810;SDS011;13645;52.460;13.910;2022-10-24T05:25:23;11.05;;;5.65;;
25810;SDS011;13645;52.460;13.910;2022-10-24T05:27:50;8.77;;;5.63;;
25810;SDS011;13645;52.460;13.910;2022-10-24T05:30:17;9.80;;;5.88;;
25810;SDS011;13645;52.460;13.910;2022-10-24T05:32:43;16.63;;;5.95;;
25810;SDS011;13645;52.460;13.910;2022-10-24T05:35:11;14.48;;;5.95;;
25810;SDS011;13645;52.460;13.910;2022-10-24T05:37:38;11.52;;;5.50;;
25810;SDS011;13645;52.460;13.910;2022-10-24T05:40:06;14.07;;;5.47;;
25810;SDS011;13645;52.460;13.910;2022-10-24T05:42:34;10.38;;;5.72;;
25810;SDS011;13645;52.460;13.910;2022-10-24T05:45:01;9.15;;;5.65;;
25810;SDS011;13645;52.460;13.910;2022-10-24T05:47:28;11.10;;;5.38;;
25810;SDS011;13645;52.460;13.910;2022-10-24T05:49:55;15.95;;;5.50;;
25810;SDS011;13645;52.460;13.910;2022-10-24T05:52:21;9.45;;;5.40;;
25810;SDS011;13645;52.460;13.910;2022-10-24T05:54:48;21.05;;;6.07;;
25810;SDS011;13645;52.460;13.910;2022-10-24T05:57:31;13.98;;;6.10;;
25810;SDS011;13645;52.460;13.910;2022-10-24T05:59:58;10.73;;;7.93;;
25810;SDS011;13645;52.460;13.910;2022-10-24T06:02:25;13.27;;;5.75;;
25810;SDS011;13645;52.460;13.910;2022-10-24T06:04:53;12.40;;;6.15;;
25810;SDS011;13645;52.460;13.910;2022-10-24T06:07:22;14.38;;;6.53;;
25810;SDS011;13645;52.460;13.910;2022-10-24T06:09:48;13.00;;;6.25;;
25810;SDS011;13645;52.460;13.910;2022-10-24T06:12:15;10.07;;;5.85;;
25810;SDS011;13645;52.460;13.910;2022-10-24T06:14:42;13.55;;;6.38;;
25810;SDS011;13645;52.460;13.910;2022-10-24T06:17:10;12.68;;;7.25;;
25810;SDS011;13645;52.460;13.910;2022-10-24T06:19:37;15.45;;;7.75;;
25810;SDS011;13645;52.460;13.910;2022-10-24T06:22:05;15.23;;;6.57;;
25810;SDS011;13645;52.460;13.910;2022-10-24T06:24:34;15.68;;;5.82;;
25810;SDS011;13645;52.460;13.910;2022-10-24T06:27:01;11.48;;;5.55;;
25810;SDS011;13645;52.460;13.910;2022-10-24T06:29:29;12.55;;;6.03;;
25810;SDS011;13645;52.460;13.910;2022-10-24T06:31:56;13.57;;;5.88;;
25810;SDS011;13645;52.460;13.910;2022-10-24T06:34:23;16.02;;;6.15;;
25810;SDS011;13645;52.460;13.910;2022-10-24T06:36:49;10.07;;;5.60;;
25810;SDS011;13645;52.460;13.910;2022-10-24T06:39:16;18.13;;;5.80;;
25810;SDS011;13645;52.460;13.910;2022-10-24T06:41:43;12.10;;;5.80;;
25810;SDS011;13645;52.460;13.910;2022-10-24T06:44:10;16.15;;;5.88;;
25810;SDS011;13645;52.460;13.910;2022-10-24T06:46:36;15.30;;;6.65;;
25810;SDS011;13645;52.460;13.910;2022-10-24T06:49:03;13.90;;;6.35;;
25810;SDS011;13645;52.460;13.910;2022-10-24T06:51:31;9.45;;;5.97;;
25810;SDS011;13645;52.460;13.910;2022-10-24T06:53:58;15.27;;;6.38;;
25810;SDS011;13645;52.460;13.910;2022-10-24T06:56:25;12.23;;;5.72;;
25810;SDS011;13645;52.460;13.910;2022-10-24T06:58:51;15.32;;;6.05;;
25810;SDS011;13645;52.460;13.910;2022-10-24T07:01:20;18.73;;;6.30;;
25810;SDS011;13645;52.460;13.910;2022-10-24T07:03:48;9.32;;;5.75;;
25810;SDS011;13645;52.460;13.910;2022-10-24T07:06:16;19.77;;;5.82;;
25810;SDS011;13645;52.460;13.910;2022-10-24T07:08:54;12.05;;;5.93;;
25810;SDS011;13645;52.460;13.910;2022-10-24T07:11:22;15.98;;;6.03;;
25810;SDS011;13645;52.460;13.910;2022-10-24T07:13:49;14.85;;;6.53;;
25810;SDS011;13645;52.460;13.910;2022-10-24T07:16:20;15.18;;;5.85;;
25810;SDS011;13645;52.460;13.910;2022-10-24T07:18:47;16.98;;;6.82;;
25810;SDS011;13645;52.460;13.910;2022-10-24T07:21:14;10.20;;;5.78;;
25810;SDS011;13645;52.460;13.910;2022-10-24T07:24:00;14.65;;;6.43;;
25810;SDS011;13645;52.460;13.910;2022-10-24T07:26:27;10.88;;;5.07;;
25810;SDS011;13645;52.460;13.910;2022-10-24T07:28:56;12.82;;;6.15;;
25810;SDS011;13645;52.460;13.910;2022-10-24T07:31:31;16.80;;;5.85;;
25810;SDS011;13645;52.460;13.910;2022-10-24T07:34:01;11.60;;;5.68;;
25810;SDS011;13645;52.460;13.910;2022-10-24T07:36:29;11.48;;;5.18;;
25810;SDS011;13645;52.460;13.910;2022-10-24T07:38:56;11.30;;;5.20;;
25810;SDS011;13645;52.460;13.910;2022-10-24T07:41:24;13.52;;;5.30;;
25810;SDS011;13645;52.460;13.910;2022-10-24T07:43:52;10.07;;;4.78;;
25810;SDS011;13645;52.460;13.910;2022-10-24T07:46:22;8.75;;;5.20;;
25810;SDS011;13645;52.460;13.910;2022-10-24T07:48:49;14.93;;;4.97;;
25810;SDS011;13645;52.460;13.910;2022-10-24T07:51:17;16.25;;;5.40;;
25810;SDS011;13645;52.460;13.910;2022-10-24T07:53:44;13.98;;;4.75;;
25810;SDS011;13645;52.460;13.910;2022-10-24T07:56:12;14.43;;;5.18;;
25810;SDS011;13645;52.460;13.910;2022-10-24T07:58:41;18.33;;;5.43;;
25810;SDS011;13645;52.460;13.910;2022-10-24T08:01:10;13.43;;;4.68;;
25810;SDS011;13645;52.460;13.910;2022-10-24T08:03:38;11.40;;;5.13;;
25810;SDS011;13645;52.460;13.910;2022-10-24T08:06:06;14.07;;;5.15;;
25810;SDS011;13645;52.460;13.910;2022-10-24T08:08:37;13.93;;;4.78;;
25810;SDS011;13645;52.460;13.910;2022-10-24T08:11:08;13.90;;;4.80;;
25810;SDS011;13645;52.460;13.910;2022-10-24T08:13:35;13.25;;;4.93;;
25810;SDS011;13645;52.460;13.910;2022-10-24T08:16:06;13.65;;;4.75;;
25810;SDS011;13645;52.460;13.910;2022-10-24T08:18:35;15.52;;;4.95;;
25810;SDS011;13645;52.460;13.910;2022-10-24T08:21:05;14.40;;;4.22;;
25810;SDS011;13645;52.460;13.910;2022-10-24T08:23:34;12.02;;;4.90;;
25810;SDS011;13645;52.460;13.910;2022-10-24T08:26:03;13.52;;;5.30;;
25810;SDS011;13645;52.460;13.910;2022-10-24T08:28:31;17.52;;;5.18;;
25810;SDS011;13645;52.460;13.910;2022-10-24T08:30:59;17.77;;;4.72;;
25810;SDS011;13645;52.460;13.910;2022-10-24T08:33:27;15.80;;;4.95;;
25810;SDS011;13645;52.460;13.910;2022-10-24T08:35:56;13.02;;;4.70;;
25810;SDS011;13645;52.460;13.910;2022-10-24T08:38:24;19.80;;;4.57;;
25810;SDS011;13645;52.460;13.910;2022-10-24T08:40:52;11.85;;;4.97;;
25810;SDS011;13645;52.460;13.910;2022-10-24T08:43:18;17.70;;;4.57;;
25810;SDS011;13645;52.460;13.910;2022-10-24T08:49:09;9.68;;;4.13;;
25810;SDS011;13645;52.460;13.910;2022-10-24T08:51:43;21.20;;;4.03;;
25810;SDS011;13645;52.460;13.910;2022-10-24T08:54:15;14.60;;;4.75;;
25810;SDS011;13645;52.460;13.910;2022-10-24T08:56:47;13.50;;;4.00;;
25810;SDS011;13645;52.460;13.910;2022-10-24T08:59:17;9.60;;;4.07;;
25810;SDS011;13645;52.460;13.910;2022-10-24T09:01:46;13.70;;;4.43;;
25810;SDS011;13645;52.460;13.910;2022-10-24T09:04:32;10.43;;;4.40;;
25810;SDS011;13645;52.460;13.910;2022-10-24T09:07:04;17.55;;;4.65;;
25810;SDS011;13645;52.460;13.910;2022-10-24T09:09:33;14.52;;;4.65;;
25810;SDS011;13645;52.460;13.910;2022-10-24T09:12:07;13.55;;;4.20;;
25810;SDS011;13645;52.460;13.910;2022-10-24T09:14:39;12.88;;;4.22;;
25810;SDS011;13645;52.460;13.910;2022-10-24T09:17:21;15.85;;;4.40;;
25810;SDS011;13645;52.460;13.910;2022-10-24T09:22:29;18.63;;;4.25;;
25810;SDS011;13645;52.460;13.910;2022-10-24T09:25:00;17.75;;;3.88;;
25810;SDS011;13645;52.460;13.910;2022-10-24T09:27:32;8.65;;;3.60;;
25810;SDS011;13645;52.460;13.910;2022-10-24T09:30:00;10.07;;;3.65;;
25810;SDS011;13645;52.460;13.910;2022-10-24T09:32:28;13.07;;;3.70;;
25810;SDS011;13645;52.460;13.910;2022-10-24T09:35:03;12.63;;;4.18;;
25810;SDS011;13645;52.460;13.910;2022-10-24T09:37:50;11.70;;;3.90;;
25810;SDS011;13645;52.460;13.910;2022-10-24T09:40:24;15.15;;;3.88;;
25810;SDS011;13645;52.460;13.910;2022-10-24T09:43:18;10.25;;;4.00;;
25810;SDS011;13645;52.460;13.910;2022-10-24T09:46:01;10.27;;;3.70;;
25810;SDS011;13645;52.460;13.910;2022-10-24T09:51:19;18.33;;;4.15;;
25810;SDS011;13645;52.460;13.910;2022-10-24T09:54:39;11.18;;;3.35;;
25810;SDS011;13645;52.460;13.910;2022-10-24T09:59:37;13.52;;;4.32;;
25810;SDS011;13645;52.460;13.910;2022-10-24T10:04:36;15.95;;;3.78;;
25810;SDS011;13645;52.460;13.910;2022-10-24T10:07:08;17.17;;;3.15;;
25810;SDS011;13645;52.460;13.910;2022-10-24T10:09:37;17.90;;;3.75;;
25810;SDS011;13645;52.460;13.910;2022-10-24T10:15:17;16.90;;;3.70;;
25810;SDS011;13645;52.460;13.910;2022-10-24T10:17:53;12.50;;;3.13;;
25810;SDS011;13645;52.460;13.910;2022-10-24T10:25:46;15.02;;;3.22;;
25810;SDS011;13645;52.460;13.910;2022-10-24T10:28:22;12.80;;;2.88;;
25810;SDS011;13645;52.460;13.910;2022-10-24T10:30:49;17.75;;;3.58;;
25810;SDS011;13645;52.460;13.910;2022-10-24T10:36:21;12.43;;;3.38;;
25810;SDS011;13645;52.460;13.910;2022-10-24T10:42:12;14.48;;;3.47;;
25810;SDS011;13645;52.460;13.910;2022-10-24T10:45:45;8.60;;;2.92;;
25810;SDS011;13645;52.460;13.910;2022-10-24T10:56:15;21.15;;;3.40;;
25810;SDS011;13645;52.460;13.910;2022-10-24T11:01:33;16.63;;;2.80;;
25810;SDS011;13645;52.460;13.910;2022-10-24T11:04:06;14.63;;;3.33;;
25810;SDS011;13645;52.460;13.910;2022-10-24T11:12:16;12.48;;;2.65;;
25810;SDS011;13645;52.460;13.910;2022-10-24T11:14:54;9.73;;;2.78;;
25810;SDS011;13645;52.460;13.910;2022-10-24T11:17:40;14.15;;;3.00;;
25810;SDS011;13645;52.460;13.910;2022-10-24T11:20:13;13.52;;;2.95;;
25810;SDS011;13645;52.460;13.910;2022-10-24T11:25:37;14.57;;;2.67;;
25810;SDS011;13645;52.460;13.910;2022-10-24T11:33:45;17.65;;;3.05;;
25810;SDS011;13645;52.460;13.910;2022-10-24T11:41:47;16.85;;;2.58;;
25810;SDS011;13645;52.460;13.910;2022-10-24T11:44:30;12.80;;;2.67;;
25810;SDS011;13645;52.460;13.910;2022-10-24T11:47:25;11.70;;;3.10;;
25810;SDS011;13645;52.460;13.910;2022-10-24T11:52:30;10.07;;;2.60;;
25810;SDS011;13645;52.460;13.910;2022-10-24T11:55:07;10.05;;;2.72;;
25810;SDS011;13645;52.460;13.910;2022-10-24T11:57:50;17.20;;;2.75;;
25810;SDS011;13645;52.460;13.910;2022-10-24T12:00:22;11.48;;;2.53;;
25810;SDS011;13645;52.460;13.910;2022-10-24T12:03:08;16.17;;;2.85;;
25810;SDS011;13645;52.460;13.910;2022-10-24T12:05:51;14.55;;;2.42;;
25810;SDS011;13645;52.460;13.910;2022-10-24T12:17:00;12.82;;;4.00;;
25810;SDS011;13645;52.460;13.910;2022-10-24T12:19:32;10.60;;;3.25;;
25810;SDS011;13645;52.460;13.910;2022-10-24T12:22:01;14.40;;;2.53;;
25810;SDS011;13645;52.460;13.910;2022-10-24T12:24:33;19.85;;;3.20;;
25810;SDS011;13645;52.460;13.910;2022-10-24T12:27:04;20.88;;;2.88;;
25810;SDS011;13645;52.460;13.910;2022-10-24T12:29:59;12.90;;;2.80;;
25810;SDS011;13645;52.460;13.910;2022-10-24T12:35:01;16.77;;;2.90;;
25810;SDS011;13645;52.460;13.910;2022-10-24T12:37:49;12.02;;;2.58;;
25810;SDS011;13645;52.460;13.910;2022-10-24T12:40:45;11.80;;;2.70;;
25810;SDS011;13645;52.460;13.910;2022-10-24T12:43:15;10.52;;;2.53;;
25810;SDS011;13645;52.460;13.910;2022-10-24T12:45:55;8.88;;;2.60;;
25810;SDS011;13645;52.460;13.910;2022-10-24T12:51:02;12.32;;;2.65;;
25810;SDS011;13645;52.460;13.910;2022-10-24T12:53:35;9.20;;;2.40;;
25810;SDS011;13645;52.460;13.910;2022-10-24T12:56:05;16.35;;;3.63;;
25810;SDS011;13645;52.460;13.910;2022-10-24T12:58:35;12.68;;;3.05;;
25810;SDS011;13645;52.460;13.910;2022-10-24T13:07:09;13.80;;;2.67;;
25810;SDS011;13645;52.460;13.910;2022-10-24T13:12:36;9.02;;;2.17;;
25810;SDS011;13645;52.460;13.910;2022-10-24T13:18:13;12.98;;;3.22;;
25810;SDS011;13645;52.460;13.910;2022-10-24T13:20:48;13.13;;;2.95;;
25810;SDS011;13645;52.460;13.910;2022-10-24T13:23:30;13.10;;;2.92;;
25810;SDS011;13645;52.460;13.910;2022-10-24T13:25:58;14.52;;;5.38;;
25810;SDS011;13645;52.460;13.910;2022-10-24T13:39:00;12.18;;;2.67;;
25810;SDS011;13645;52.460;13.910;2022-10-24T13:41:36;15.43;;;2.70;;
25810;SDS011;13645;52.460;13.910;2022-10-24T13:44:24;9.50;;;2.72;;
25810;SDS011;13645;52.460;13.910;2022-10-24T13:49:50;10.38;;;2.67;;
25810;SDS011;13645;52.460;13.910;2022-10-24T13:52:42;9.65;;;2.45;;
25810;SDS011;13645;52.460;13.910;2022-10-24T13:58:16;16.75;;;3.25;;
25810;SDS011;13645;52.460;13.910;2022-10-24T14:00:54;11.15;;;2.95;;
25810;SDS011;13645;52.460;13.910;2022-10-24T14:03:24;12.00;;;2.67;;
25810;SDS011;13645;52.460;13.910;2022-10-24T14:05:57;11.00;;;2.55;;
25810;SDS011;13645;52.460;13.910;2022-10-24T14:08:29;6.68;;;2.05;;
25810;SDS011;13645;52.460;13.910;2022-10-24T14:10:58;10.50;;;2.47;;
25810;SDS011;13645;52.460;13.910;2022-10-24T14:13:28;9.98;;;2.30;;
25810;SDS011;13645;52.460;13.910;2022-10-24T14:15:57;14.70;;;2.53;;
25810;SDS011;13645;52.460;13.910;2022-10-24T14:18:27;12.50;;;2.35;;
25810;SDS011;13645;52.460;13.910;2022-10-24T14:21:01;9.27;;;2.67;;
25810;SDS011;13645;52.460;13.910;2022-10-24T14:23:31;13.48;;;2.67;;
25810;SDS011;13645;52.460;13.910;2022-10-24T14:26:01;8.45;;;2.33;;
25810;SDS011;13645;52.460;13.910;2022-10-24T14:28:29;12.82;;;2.55;;
25810;SDS011;13645;52.460;13.910;2022-10-24T14:30:59;7.85;;;2.10;;
25810;SDS011;13645;52.460;13.910;2022-10-24T14:33:29;14.00;;;2.70;;
25810;SDS011;13645;52.460;13.910;2022-10-24T14:35:58;9.50;;;2.35;;
25810;SDS011;13645;52.460;13.910;2022-10-24T14:38:27;11.95;;;2.40;;
25810;SDS011;13645;52.460;13.910;2022-10-24T14:40:54;11.75;;;2.20;;
25810;SDS011;13645;52.460;13.910;2022-10-24T14:43:33;10.48;;;2.10;;
25810;SDS011;13645;52.460;13.910;2022-10-24T14:46:31;11.73;;;2.80;;
25810;SDS011;13645;52.460;13.910;2022-10-24T14:48:55;13.60;;;2.80;;
25810;SDS011;13645;52.460;13.910;2022-10-24T14:51:32;7.50;;;2.17;;
25810;SDS011;13645;52.460;13.910;2022-10-24T14:54:04;11.45;;;2.28;;
25810;SDS011;13645;52.460;13.910;2022-10-24T14:56:42;8.65;;;2.70;;
25810;SDS011;13645;52.460;13.910;2022-10-24T14:59:17;11.18;;;2.60;;
25810;SDS011;13645;52.460;13.910;2022-10-24T15:02:19;13.02;;;2.85;;
25810;SDS011;13645;52.460;13.910;2022-10-24T15:07:40;16.25;;;2.63;;
25810;SDS011;13645;52.460;13.910;2022-10-24T15:10:31;9.57;;;2.58;;
25810;SDS011;13645;52.460;13.910;2022-10-24T15:12:59;13.80;;;2.42;;
25810;SDS011;13645;52.460;13.910;2022-10-24T15:18:30;11.45;;;2.40;;
25810;SDS011;13645;52.460;13.910;2022-10-24T15:21:11;12.32;;;3.05;;
25810;SDS011;13645;52.460;13.910;2022-10-24T15:23:44;9.25;;;2.35;;
25810;SDS011;13645;52.460;13.910;2022-10-24T15:31:28;14.65;;;3.50;;
25810;SDS011;13645;52.460;13.910;2022-10-24T15:33:56;16.00;;;6.30;;
25810;SDS011;13645;52.460;13.910;2022-10-24T15:36:26;17.67;;;4.63;;
25810;SDS011;13645;52.460;13.910;2022-10-24T15:41:25;17.38;;;8.13;;
25810;SDS011;13645;52.460;13.910;2022-10-24T15:43:53;20.52;;;7.18;;
25810;SDS011;13645;52.460;13.910;2022-10-24T15:46:20;15.95;;;4.97;;
25810;SDS011;13645;52.460;13.910;2022-10-24T15:48:49;25.63;;;11.32;;
25810;SDS011;13645;52.460;13.910;2022-10-24T15:51:18;29.65;;;14.38;;
25810;SDS011;13645;52.460;13.910;2022-10-24T15:53:49;25.05;;;11.40;;
25810;SDS011;13645;52.460;13.910;2022-10-24T15:56:16;32.38;;;17.23;;
25810;SDS011;13645;52.460;13.910;2022-10-24T15:58:43;30.20;;;17.40;;
25810;SDS011;13645;52.460;13.910;2022-10-24T16:01:17;18.45;;;3.83;;
25810;SDS011;13645;52.460;13.910;2022-10-24T16:03:56;16.60;;;7.32;;
25810;SDS011;13645;52.460;13.910;2022-10-24T16:06:24;22.55;;;8.07;;
25810;SDS011;13645;52.460;13.910;2022-10-24T16:08:51;15.38;;;6.38;;
25810;SDS011;13645;52.460;13.910;2022-10-24T16:11:18;15.23;;;3.83;;
25810;SDS011;13645;52.460;13.910;2022-10-24T16:13:45;10.30;;;3.33;;
25810;SDS011;13645;52.460;13.910;2022-10-24T16:16:12;15.07;;;4.75;;
25810;SDS011;13645;52.460;13.910;2022-10-24T16:18:39;11.35;;;2.78;;
25810;SDS011;13645;52.460;13.910;2022-10-24T16:21:06;10.80;;;3.53;;
25810;SDS011;13645;52.460;13.910;2022-10-24T16:23:33;11.18;;;2.75;;
25810;SDS011;13645;52.460;13.910;2022-10-24T16:25:59;10.00;;;3.00;;
25810;SDS011;13645;52.460;13.910;2022-10-24T16:28:26;9.63;;;2.78;;
25810;SDS011;13645;52.460;13.910;2022-10-24T16:30:53;14.85;;;3.13;;
25810;SDS011;13645;52.460;13.910;2022-10-24T16:33:20;7.68;;;2.30;;
25810;SDS011;13645;52.460;13.910;2022-10-24T16:35:47;8.27;;;2.30;;
25810;SDS011;13645;52.460;13.910;2022-10-24T16:38:14;11.73;;;2.30;;
25810;SDS011;13645;52.460;13.910;2022-10-24T16:40:45;10.23;;;2.47;;
25810;SDS011;13645;52.460;13.910;2022-10-24T16:43:14;7.07;;;2.17;;
25810;SDS011;13645;52.460;13.910;2022-10-24T16:45:44;11.77;;;2.97;;
25810;SDS011;13645;52.460;13.910;2022-10-24T16:48:12;7.40;;;2.20;;
25810;SDS011;13645;52.460;13.910;2022-10-24T16:50:40;8.75;;;2.53;;
25810;SDS011;13645;52.460;13.910;2022-10-24T16:53:11;9.68;;;2.65;;
25810;SDS011;13645;52.460;13.910;2022-10-24T16:55:44;8.63;;;2.22;;
25810;SDS011;13645;52.460;13.910;2022-10-24T16:58:14;12.48;;;2.47;;
25810;SDS011;13645;52.460;13.910;2022-10-24T17:00:42;6.70;;;2.22;;